Airfield :







YOU CAN JOIN US ON...

 
LOGIN :

Register | Disclaimer

   EN    FR    IT 

 









Legend :    VFR   Marginal VFR   IFR   Intensive IFR   Very Intensive IFR
Visi :
Ceiling :
>= 8 km
>= 3000ft
5 to 8 km
1000 to 3000 ft
1500m to 5 km
500 to 1000 ft
800 to 1500m
200 to 500 ft
< 800m
< 200 ft
Symbols :   Thunderstorms  Fog  Heavy snow  Heavy precipitations  Wind > 20 kt






- Airport Elevation : 20 ft
- IATA code : BOS


KBOS - General Edward Lawrence Logan International

CURRENT METAR :
  • 232154Z 22006KT 10SM FEW130 OVC230 08/M12 A3031 RMK AO2 SLP262 T00831117

EXPIRED METARs :
  • 232054Z 23009KT 10SM SCT130 OVC230 09/M12 A3030 RMK AO2 SLP261 T00891117 56006
  • 231954Z 26006KT 10SM SCT130 BKN230 09/M12 A3031 RMK AO2 SLP262 T00941122

TAF KBOS
Valid from the 23 at 21:00 until the 25 at 00:00 UTC


232059Z 2321/2424 23007KT P6SM BKN250
FM240200 26004KT P6SM BKN250
FM240800 29005KT P6SM BKN200
FM241500 02005KT P6SM FEW015
FM242000 06007KT P6SM BKN015



MET'MAP, your aeronautical weather chart ! - Copyright ORBIFLY December 2007 - Disclaimer

ORBIFLY MET'MAP TEAM :

Programming & Development : Alexandra Zaïnal
Concept & original design : Baudouin d'Aumeries
Assistance for programming : Marc-Olivier Méhu
Technical & hardware support : Manuel Goepfert

Contact : metmap@orbifly.com




SOURCES & CREDITS :

   NOAA